sensor_id;sensor_type;location;lat;lon;timestamp;P1;durP1;ratioP1;P2;durP2;ratioP2
52102;SDS011;38101;53.126;6.878;2023-06-04T00:00:41;4.45;;;2.35;;
52102;SDS011;38101;53.126;6.878;2023-06-04T00:03:07;5.18;;;2.45;;
52102;SDS011;38101;53.126;6.878;2023-06-04T00:05:33;6.15;;;3.08;;
52102;SDS011;38101;53.126;6.878;2023-06-04T00:07:59;5.15;;;2.75;;
52102;SDS011;38101;53.126;6.878;2023-06-04T00:10:24;7.05;;;2.63;;
52102;SDS011;38101;53.126;6.878;2023-06-04T00:12:50;5.03;;;2.78;;
52102;SDS011;38101;53.126;6.878;2023-06-04T00:15:16;5.32;;;2.50;;
52102;SDS011;38101;53.126;6.878;2023-06-04T00:17:42;6.75;;;3.53;;
52102;SDS011;38101;53.126;6.878;2023-06-04T00:20:08;4.53;;;2.70;;
52102;SDS011;38101;53.126;6.878;2023-06-04T00:22:35;5.18;;;2.38;;
52102;SDS011;38101;53.126;6.878;2023-06-04T00:25:01;5.68;;;2.67;;
52102;SDS011;38101;53.126;6.878;2023-06-04T00:27:26;4.47;;;2.55;;
52102;SDS011;38101;53.126;6.878;2023-06-04T00:29:52;5.65;;;2.42;;
52102;SDS011;38101;53.126;6.878;2023-06-04T00:32:18;5.55;;;2.45;;
52102;SDS011;38101;53.126;6.878;2023-06-04T00:34:50;7.70;;;2.80;;
52102;SDS011;38101;53.126;6.878;2023-06-04T00:37:21;4.53;;;2.67;;
52102;SDS011;38101;53.126;6.878;2023-06-04T00:39:47;6.72;;;2.50;;
52102;SDS011;38101;53.126;6.878;2023-06-04T00:42:13;9.13;;;3.45;;
52102;SDS011;38101;53.126;6.878;2023-06-04T00:44:39;4.80;;;2.75;;
52102;SDS011;38101;53.126;6.878;2023-06-04T00:47:13;6.20;;;2.78;;
52102;SDS011;38101;53.126;6.878;2023-06-04T00:49:39;4.63;;;2.80;;
52102;SDS011;38101;53.126;6.878;2023-06-04T00:52:07;4.55;;;2.90;;
52102;SDS011;38101;53.126;6.878;2023-06-04T00:54:34;4.57;;;2.90;;
52102;SDS011;38101;53.126;6.878;2023-06-04T00:57:01;4.70;;;2.70;;
52102;SDS011;38101;53.126;6.878;2023-06-04T00:59:27;5.43;;;3.22;;
52102;SDS011;38101;53.126;6.878;2023-06-04T01:07:15;3.55;;;2.58;;
52102;SDS011;38101;53.126;6.878;2023-06-04T01:09:41;6.80;;;2.70;;
52102;SDS011;38101;53.126;6.878;2023-06-04T01:12:09;5.28;;;3.35;;
52102;SDS011;38101;53.126;6.878;2023-06-04T01:14:36;7.00;;;3.10;;
52102;SDS011;38101;53.126;6.878;2023-06-04T01:17:06;6.25;;;3.25;;
52102;SDS011;38101;53.126;6.878;2023-06-04T01:22:46;7.07;;;2.63;;
52102;SDS011;38101;53.126;6.878;2023-06-04T01:28:09;4.20;;;3.10;;
52102;SDS011;38101;53.126;6.878;2023-06-04T01:30:38;4.13;;;3.00;;
52102;SDS011;38101;53.126;6.878;2023-06-04T01:33:09;8.52;;;2.97;;
52102;SDS011;38101;53.126;6.878;2023-06-04T01:35:36;5.15;;;2.83;;
52102;SDS011;38101;53.126;6.878;2023-06-04T01:38:02;5.85;;;2.60;;
52102;SDS011;38101;53.126;6.878;2023-06-04T01:40:28;7.13;;;2.80;;
52102;SDS011;38101;53.126;6.878;2023-06-04T01:42:54;5.35;;;2.90;;
52102;SDS011;38101;53.126;6.878;2023-06-04T01:45:26;5.45;;;3.20;;
52102;SDS011;38101;53.126;6.878;2023-06-04T01:47:53;5.60;;;2.92;;
52102;SDS011;38101;53.126;6.878;2023-06-04T01:50:19;4.53;;;2.53;;
52102;SDS011;38101;53.126;6.878;2023-06-04T01:52:45;5.38;;;3.33;;
52102;SDS011;38101;53.126;6.878;2023-06-04T01:55:11;5.00;;;3.00;;
52102;SDS011;38101;53.126;6.878;2023-06-04T01:57:42;5.15;;;3.35;;
52102;SDS011;38101;53.126;6.878;2023-06-04T02:00:09;4.50;;;3.08;;
52102;SDS011;38101;53.126;6.878;2023-06-04T02:02:36;7.95;;;3.33;;
52102;SDS011;38101;53.126;6.878;2023-06-04T02:05:03;7.25;;;3.25;;
52102;SDS011;38101;53.126;6.878;2023-06-04T02:07:32;6.50;;;2.90;;
52102;SDS011;38101;53.126;6.878;2023-06-04T02:10:04;4.75;;;3.03;;
52102;SDS011;38101;53.126;6.878;2023-06-04T02:12:38;7.45;;;3.42;;
52102;SDS011;38101;53.126;6.878;2023-06-04T02:15:05;6.03;;;3.40;;
52102;SDS011;38101;53.126;6.878;2023-06-04T02:17:32;4.80;;;2.50;;
52102;SDS011;38101;53.126;6.878;2023-06-04T02:20:02;4.10;;;2.40;;
52102;SDS011;38101;53.126;6.878;2023-06-04T02:22:31;4.88;;;2.90;;
52102;SDS011;38101;53.126;6.878;2023-06-04T02:24:56;6.43;;;3.20;;
52102;SDS011;38101;53.126;6.878;2023-06-04T02:27:22;5.75;;;3.55;;
52102;SDS011;38101;53.126;6.878;2023-06-04T02:29:48;5.30;;;3.13;;
52102;SDS011;38101;53.126;6.878;2023-06-04T02:32:13;6.07;;;3.35;;
52102;SDS011;38101;53.126;6.878;2023-06-04T02:34:39;5.88;;;3.40;;
52102;SDS011;38101;53.126;6.878;2023-06-04T02:37:05;6.43;;;3.03;;
52102;SDS011;38101;53.126;6.878;2023-06-04T02:39:31;4.22;;;2.80;;
52102;SDS011;38101;53.126;6.878;2023-06-04T02:41:57;6.32;;;3.40;;
52102;SDS011;38101;53.126;6.878;2023-06-04T02:44:22;5.15;;;3.20;;
52102;SDS011;38101;53.126;6.878;2023-06-04T02:46:48;6.72;;;3.70;;
52102;SDS011;38101;53.126;6.878;2023-06-04T02:49:14;7.57;;;3.78;;
52102;SDS011;38101;53.126;6.878;2023-06-04T02:51:40;6.20;;;3.47;;
52102;SDS011;38101;53.126;6.878;2023-06-04T02:54:06;6.05;;;3.30;;
52102;SDS011;38101;53.126;6.878;2023-06-04T02:56:31;7.15;;;3.70;;
52102;SDS011;38101;53.126;6.878;2023-06-04T02:58:58;5.80;;;3.60;;
52102;SDS011;38101;53.126;6.878;2023-06-04T03:01:24;7.72;;;3.97;;
52102;SDS011;38101;53.126;6.878;2023-06-04T03:03:51;5.72;;;3.40;;
52102;SDS011;38101;53.126;6.878;2023-06-04T03:06:18;4.15;;;2.72;;
52102;SDS011;38101;53.126;6.878;2023-06-04T03:08:48;4.20;;;2.30;;
52102;SDS011;38101;53.126;6.878;2023-06-04T03:11:15;4.35;;;2.45;;
52102;SDS011;38101;53.126;6.878;2023-06-04T03:13:42;5.57;;;3.17;;
52102;SDS011;38101;53.126;6.878;2023-06-04T03:16:08;5.00;;;3.28;;
52102;SDS011;38101;53.126;6.878;2023-06-04T03:18:37;4.85;;;3.28;;
52102;SDS011;38101;53.126;6.878;2023-06-04T03:21:05;5.43;;;2.78;;
52102;SDS011;38101;53.126;6.878;2023-06-04T03:23:31;4.43;;;2.85;;
52102;SDS011;38101;53.126;6.878;2023-06-04T03:25:58;5.05;;;2.78;;
52102;SDS011;38101;53.126;6.878;2023-06-04T03:28:23;5.32;;;3.30;;
52102;SDS011;38101;53.126;6.878;2023-06-04T03:30:49;7.40;;;3.13;;
52102;SDS011;38101;53.126;6.878;2023-06-04T03:33:15;5.75;;;3.33;;
52102;SDS011;38101;53.126;6.878;2023-06-04T03:35:41;5.43;;;3.35;;
52102;SDS011;38101;53.126;6.878;2023-06-04T03:38:06;5.72;;;3.40;;
52102;SDS011;38101;53.126;6.878;2023-06-04T03:40:32;5.72;;;3.40;;
52102;SDS011;38101;53.126;6.878;2023-06-04T03:42:58;4.55;;;3.28;;
52102;SDS011;38101;53.126;6.878;2023-06-04T03:45:25;5.85;;;3.30;;
52102;SDS011;38101;53.126;6.878;2023-06-04T03:47:51;5.03;;;3.03;;
52102;SDS011;38101;53.126;6.878;2023-06-04T03:50:17;6.55;;;4.10;;
52102;SDS011;38101;53.126;6.878;2023-06-04T03:52:44;5.57;;;2.90;;
52102;SDS011;38101;53.126;6.878;2023-06-04T03:55:09;4.65;;;3.10;;
52102;SDS011;38101;53.126;6.878;2023-06-04T03:57:36;5.53;;;3.00;;
52102;SDS011;38101;53.126;6.878;2023-06-04T04:00:04;6.50;;;3.42;;
52102;SDS011;38101;53.126;6.878;2023-06-04T04:02:32;6.28;;;3.25;;
52102;SDS011;38101;53.126;6.878;2023-06-04T04:04:57;5.57;;;3.30;;
52102;SDS011;38101;53.126;6.878;2023-06-04T04:07:23;5.32;;;3.20;;
52102;SDS011;38101;53.126;6.878;2023-06-04T04:09:49;5.40;;;3.13;;
52102;SDS011;38101;53.126;6.878;2023-06-04T04:12:16;4.93;;;3.13;;
52102;SDS011;38101;53.126;6.878;2023-06-04T04:14:42;5.55;;;3.30;;
52102;SDS011;38101;53.126;6.878;2023-06-04T04:17:08;6.85;;;3.05;;
52102;SDS011;38101;53.126;6.878;2023-06-04T04:19:33;7.80;;;4.07;;
52102;SDS011;38101;53.126;6.878;2023-06-04T04:21:59;6.90;;;3.88;;
52102;SDS011;38101;53.126;6.878;2023-06-04T04:24:25;6.13;;;3.50;;
52102;SDS011;38101;53.126;6.878;2023-06-04T04:26:52;7.60;;;4.55;;
52102;SDS011;38101;53.126;6.878;2023-06-04T04:29:19;6.10;;;4.07;;
52102;SDS011;38101;53.126;6.878;2023-06-04T04:31:48;7.25;;;4.18;;
52102;SDS011;38101;53.126;6.878;2023-06-04T04:34:14;8.57;;;4.07;;
52102;SDS011;38101;53.126;6.878;2023-06-04T04:36:40;7.78;;;4.20;;
52102;SDS011;38101;53.126;6.878;2023-06-04T04:39:06;8.07;;;4.88;;
52102;SDS011;38101;53.126;6.878;2023-06-04T04:41:32;6.00;;;4.22;;
52102;SDS011;38101;53.126;6.878;2023-06-04T04:44:04;8.18;;;4.25;;
52102;SDS011;38101;53.126;6.878;2023-06-04T04:46:30;9.77;;;4.20;;
52102;SDS011;38101;53.126;6.878;2023-06-04T04:48:56;7.43;;;4.30;;
52102;SDS011;38101;53.126;6.878;2023-06-04T04:51:22;8.23;;;4.28;;
52102;SDS011;38101;53.126;6.878;2023-06-04T04:53:47;6.90;;;4.35;;
52102;SDS011;38101;53.126;6.878;2023-06-04T04:56:13;8.38;;;4.25;;
52102;SDS011;38101;53.126;6.878;2023-06-04T04:58:39;8.82;;;4.13;;
52102;SDS011;38101;53.126;6.878;2023-06-04T05:01:05;8.93;;;4.00;;
52102;SDS011;38101;53.126;6.878;2023-06-04T05:03:31;8.95;;;4.43;;
52102;SDS011;38101;53.126;6.878;2023-06-04T05:05:56;11.32;;;4.53;;
52102;SDS011;38101;53.126;6.878;2023-06-04T05:08:22;7.95;;;4.00;;
52102;SDS011;38101;53.126;6.878;2023-06-04T05:10:48;9.38;;;4.50;;
52102;SDS011;38101;53.126;6.878;2023-06-04T05:13:15;6.50;;;4.07;;
52102;SDS011;38101;53.126;6.878;2023-06-04T05:15:41;7.53;;;4.15;;
52102;SDS011;38101;53.126;6.878;2023-06-04T05:18:07;7.18;;;3.53;;
52102;SDS011;38101;53.126;6.878;2023-06-04T05:20:33;7.25;;;4.10;;
52102;SDS011;38101;53.126;6.878;2023-06-04T05:23:02;6.22;;;3.72;;
52102;SDS011;38101;53.126;6.878;2023-06-04T05:25:29;8.82;;;4.30;;
52102;SDS011;38101;53.126;6.878;2023-06-04T05:27:56;7.05;;;3.63;;
52102;SDS011;38101;53.126;6.878;2023-06-04T05:30:21;7.60;;;3.20;;
52102;SDS011;38101;53.126;6.878;2023-06-04T05:32:47;5.35;;;3.30;;
52102;SDS011;38101;53.126;6.878;2023-06-04T05:35:15;7.07;;;3.58;;
52102;SDS011;38101;53.126;6.878;2023-06-04T05:37:41;7.85;;;3.55;;
52102;SDS011;38101;53.126;6.878;2023-06-04T05:40:10;9.00;;;3.63;;
52102;SDS011;38101;53.126;6.878;2023-06-04T05:42:37;7.15;;;3.00;;
52102;SDS011;38101;53.126;6.878;2023-06-04T05:45:04;6.07;;;3.35;;
52102;SDS011;38101;53.126;6.878;2023-06-04T05:47:30;6.75;;;3.15;;
52102;SDS011;38101;53.126;6.878;2023-06-04T05:49:56;6.60;;;3.15;;
52102;SDS011;38101;53.126;6.878;2023-06-04T05:52:22;8.13;;;3.45;;
52102;SDS011;38101;53.126;6.878;2023-06-04T05:54:48;7.32;;;3.60;;
52102;SDS011;38101;53.126;6.878;2023-06-04T05:57:14;8.90;;;2.80;;
52102;SDS011;38101;53.126;6.878;2023-06-04T05:59:40;7.90;;;2.67;;
52102;SDS011;38101;53.126;6.878;2023-06-04T06:02:05;7.70;;;2.80;;
52102;SDS011;38101;53.126;6.878;2023-06-04T06:04:32;7.28;;;3.35;;
52102;SDS011;38101;53.126;6.878;2023-06-04T06:06:58;5.97;;;3.00;;
52102;SDS011;38101;53.126;6.878;2023-06-04T06:09:23;8.02;;;2.92;;
52102;SDS011;38101;53.126;6.878;2023-06-04T06:11:49;5.65;;;2.33;;
52102;SDS011;38101;53.126;6.878;2023-06-04T06:14:15;5.47;;;2.83;;
52102;SDS011;38101;53.126;6.878;2023-06-04T06:16:42;4.93;;;2.60;;
52102;SDS011;38101;53.126;6.878;2023-06-04T06:19:07;5.80;;;3.33;;
52102;SDS011;38101;53.126;6.878;2023-06-04T06:21:33;7.40;;;2.95;;
52102;SDS011;38101;53.126;6.878;2023-06-04T06:23:59;4.18;;;1.98;;
52102;SDS011;38101;53.126;6.878;2023-06-04T06:26:24;4.72;;;2.25;;
52102;SDS011;38101;53.126;6.878;2023-06-04T06:28:50;7.03;;;2.70;;
52102;SDS011;38101;53.126;6.878;2023-06-04T06:31:16;7.60;;;2.75;;
52102;SDS011;38101;53.126;6.878;2023-06-04T06:33:42;5.82;;;2.80;;
52102;SDS011;38101;53.126;6.878;2023-06-04T06:36:10;4.38;;;2.47;;
52102;SDS011;38101;53.126;6.878;2023-06-04T06:38:37;5.50;;;2.65;;
52102;SDS011;38101;53.126;6.878;2023-06-04T06:41:03;5.32;;;2.10;;
52102;SDS011;38101;53.126;6.878;2023-06-04T06:43:29;4.47;;;2.40;;
52102;SDS011;38101;53.126;6.878;2023-06-04T06:45:55;6.05;;;3.10;;
52102;SDS011;38101;53.126;6.878;2023-06-04T06:48:20;7.07;;;2.83;;
52102;SDS011;38101;53.126;6.878;2023-06-04T06:50:46;7.50;;;2.67;;
52102;SDS011;38101;53.126;6.878;2023-06-04T06:53:12;5.10;;;2.47;;
52102;SDS011;38101;53.126;6.878;2023-06-04T06:55:37;5.00;;;2.58;;
52102;SDS011;38101;53.126;6.878;2023-06-04T06:58:03;4.43;;;2.38;;
52102;SDS011;38101;53.126;6.878;2023-06-04T07:00:29;7.45;;;3.10;;
52102;SDS011;38101;53.126;6.878;2023-06-04T07:02:54;5.55;;;2.50;;
52102;SDS011;38101;53.126;6.878;2023-06-04T07:05:21;6.90;;;2.65;;
52102;SDS011;38101;53.126;6.878;2023-06-04T07:07:47;6.60;;;2.75;;
52102;SDS011;38101;53.126;6.878;2023-06-04T07:10:13;5.07;;;2.35;;
52102;SDS011;38101;53.126;6.878;2023-06-04T07:12:39;5.60;;;2.42;;
52102;SDS011;38101;53.126;6.878;2023-06-04T07:15:05;4.65;;;2.40;;
52102;SDS011;38101;53.126;6.878;2023-06-04T07:17:32;6.63;;;2.20;;
52102;SDS011;38101;53.126;6.878;2023-06-04T07:19:57;5.50;;;2.97;;
52102;SDS011;38101;53.126;6.878;2023-06-04T07:22:23;5.47;;;2.15;;
52102;SDS011;38101;53.126;6.878;2023-06-04T07:24:49;5.45;;;2.15;;
52102;SDS011;38101;53.126;6.878;2023-06-04T07:27:15;5.43;;;2.53;;
52102;SDS011;38101;53.126;6.878;2023-06-04T07:29:42;5.45;;;2.17;;
52102;SDS011;38101;53.126;6.878;2023-06-04T07:32:09;5.10;;;2.20;;
52102;SDS011;38101;53.126;6.878;2023-06-04T07:34:35;5.82;;;2.72;;
52102;SDS011;38101;53.126;6.878;2023-06-04T07:37:02;5.10;;;2.55;;
52102;SDS011;38101;53.126;6.878;2023-06-04T07:39:28;4.57;;;1.75;;
52102;SDS011;38101;53.126;6.878;2023-06-04T07:41:54;5.82;;;2.10;;
52102;SDS011;38101;53.126;6.878;2023-06-04T07:44:20;3.35;;;2.05;;
52102;SDS011;38101;53.126;6.878;2023-06-04T07:46:46;3.22;;;1.65;;
52102;SDS011;38101;53.126;6.878;2023-06-04T07:49:11;5.55;;;1.88;;
52102;SDS011;38101;53.126;6.878;2023-06-04T07:51:37;5.25;;;2.05;;
52102;SDS011;38101;53.126;6.878;2023-06-04T07:54:03;3.72;;;1.60;;
52102;SDS011;38101;53.126;6.878;2023-06-04T07:56:28;4.30;;;1.80;;
52102;SDS011;38101;53.126;6.878;2023-06-04T07:58:54;3.30;;;1.75;;
52102;SDS011;38101;53.126;6.878;2023-06-04T08:01:20;3.70;;;1.67;;
52102;SDS011;38101;53.126;6.878;2023-06-04T08:03:46;4.03;;;1.85;;
52102;SDS011;38101;53.126;6.878;2023-06-04T08:06:12;3.53;;;1.73;;
52102;SDS011;38101;53.126;6.878;2023-06-04T08:08:43;5.55;;;2.03;;
52102;SDS011;38101;53.126;6.878;2023-06-04T08:11:14;3.83;;;1.88;;
52102;SDS011;38101;53.126;6.878;2023-06-04T08:13:40;3.58;;;1.90;;
52102;SDS011;38101;53.126;6.878;2023-06-04T08:16:07;5.70;;;2.35;;
52102;SDS011;38101;53.126;6.878;2023-06-04T08:18:41;2.47;;;1.73;;
52102;SDS011;38101;53.126;6.878;2023-06-04T08:21:10;4.63;;;1.98;;
52102;SDS011;38101;53.126;6.878;2023-06-04T08:23:37;2.63;;;1.60;;
52102;SDS011;38101;53.126;6.878;2023-06-04T08:26:02;3.10;;;1.70;;
52102;SDS011;38101;53.126;6.878;2023-06-04T08:28:28;3.95;;;1.85;;
52102;SDS011;38101;53.126;6.878;2023-06-04T08:30:54;4.00;;;1.75;;
52102;SDS011;38101;53.126;6.878;2023-06-04T08:33:20;3.67;;;1.55;;
52102;SDS011;38101;53.126;6.878;2023-06-04T08:35:46;4.18;;;1.80;;
52102;SDS011;38101;53.126;6.878;2023-06-04T08:38:12;3.20;;;1.58;;
52102;SDS011;38101;53.126;6.878;2023-06-04T08:40:38;3.20;;;1.80;;
52102;SDS011;38101;53.126;6.878;2023-06-04T08:43:03;2.45;;;1.65;;
52102;SDS011;38101;53.126;6.878;2023-06-04T08:45:32;4.15;;;1.77;;
52102;SDS011;38101;53.126;6.878;2023-06-04T08:47:58;3.22;;;1.80;;
52102;SDS011;38101;53.126;6.878;2023-06-04T08:50:25;2.35;;;1.70;;
52102;SDS011;38101;53.126;6.878;2023-06-04T08:52:54;4.13;;;1.88;;
52102;SDS011;38101;53.126;6.878;2023-06-04T08:55:21;2.92;;;1.60;;
52102;SDS011;38101;53.126;6.878;2023-06-04T08:57:50;3.60;;;1.73;;
52102;SDS011;38101;53.126;6.878;2023-06-04T09:00:17;3.08;;;1.75;;
52102;SDS011;38101;53.126;6.878;2023-06-04T09:02:43;3.10;;;1.88;;
52102;SDS011;38101;53.126;6.878;2023-06-04T09:05:10;2.80;;;1.80;;
52102;SDS011;38101;53.126;6.878;2023-06-04T09:10:11;5.00;;;1.60;;
52102;SDS011;38101;53.126;6.878;2023-06-04T09:12:42;2.35;;;1.67;;
52102;SDS011;38101;53.126;6.878;2023-06-04T09:15:11;4.57;;;1.70;;
52102;SDS011;38101;53.126;6.878;2023-06-04T09:17:37;2.72;;;1.75;;
52102;SDS011;38101;53.126;6.878;2023-06-04T09:20:03;3.63;;;1.67;;
52102;SDS011;38101;53.126;6.878;2023-06-04T09:22:34;3.63;;;1.70;;
52102;SDS011;38101;53.126;6.878;2023-06-04T09:25:03;2.60;;;1.70;;
52102;SDS011;38101;53.126;6.878;2023-06-04T09:27:40;5.57;;;1.80;;
52102;SDS011;38101;53.126;6.878;2023-06-04T09:30:06;3.38;;;1.88;;
52102;SDS011;38101;53.126;6.878;2023-06-04T09:32:36;3.03;;;1.80;;
52102;SDS011;38101;53.126;6.878;2023-06-04T09:35:12;4.10;;;1.88;;
52102;SDS011;38101;53.126;6.878;2023-06-04T09:37:43;4.45;;;1.70;;
52102;SDS011;38101;53.126;6.878;2023-06-04T09:40:21;3.58;;;1.70;;
52102;SDS011;38101;53.126;6.878;2023-06-04T09:42:48;3.22;;;1.70;;
52102;SDS011;38101;53.126;6.878;2023-06-04T09:45:28;3.30;;;2.03;;
52102;SDS011;38101;53.126;6.878;2023-06-04T09:47:54;4.30;;;1.70;;
52102;SDS011;38101;53.126;6.878;2023-06-04T09:50:24;2.70;;;1.58;;
52102;SDS011;38101;53.126;6.878;2023-06-04T09:52:52;3.17;;;1.55;;
52102;SDS011;38101;53.126;6.878;2023-06-04T09:55:18;4.40;;;2.13;;
52102;SDS011;38101;53.126;6.878;2023-06-04T09:57:51;3.05;;;2.00;;
52102;SDS011;38101;53.126;6.878;2023-06-04T10:00:21;3.72;;;1.55;;
52102;SDS011;38101;53.126;6.878;2023-06-04T10:02:49;3.75;;;1.92;;
52102;SDS011;38101;53.126;6.878;2023-06-04T10:05:20;3.45;;;1.75;;
52102;SDS011;38101;53.126;6.878;2023-06-04T10:07:47;4.13;;;1.88;;
52102;SDS011;38101;53.126;6.878;2023-06-04T10:10:18;5.20;;;1.65;;
52102;SDS011;38101;53.126;6.878;2023-06-04T10:12:50;4.95;;;2.00;;
52102;SDS011;38101;53.126;6.878;2023-06-04T10:15:21;3.47;;;2.13;;
52102;SDS011;38101;53.126;6.878;2023-06-04T10:17:48;2.92;;;1.60;;
52102;SDS011;38101;53.126;6.878;2023-06-04T10:20:15;2.75;;;1.50;;
52102;SDS011;38101;53.126;6.878;2023-06-04T10:22:43;3.53;;;1.88;;
52102;SDS011;38101;53.126;6.878;2023-06-04T10:25:09;3.33;;;1.50;;
52102;SDS011;38101;53.126;6.878;2023-06-04T10:27:35;3.00;;;2.00;;
52102;SDS011;38101;53.126;6.878;2023-06-04T10:30:02;2.85;;;1.70;;
52102;SDS011;38101;53.126;6.878;2023-06-04T10:32:29;3.17;;;1.80;;
52102;SDS011;38101;53.126;6.878;2023-06-04T10:34:55;3.47;;;1.70;;
52102;SDS011;38101;53.126;6.878;2023-06-04T10:37:26;3.30;;;1.70;;
52102;SDS011;38101;53.126;6.878;2023-06-04T10:39:57;3.47;;;1.90;;
52102;SDS011;38101;53.126;6.878;2023-06-04T10:42:24;4.80;;;1.90;;
52102;SDS011;38101;53.126;6.878;2023-06-04T10:44:54;3.13;;;1.92;;
52102;SDS011;38101;53.126;6.878;2023-06-04T10:47:23;3.40;;;1.50;;
52102;SDS011;38101;53.126;6.878;2023-06-04T10:49:50;2.50;;;1.58;;
52102;SDS011;38101;53.126;6.878;2023-06-04T10:52:17;3.55;;;2.03;;
52102;SDS011;38101;53.126;6.878;2023-06-04T10:54:44;5.07;;;2.15;;
52102;SDS011;38101;53.126;6.878;2023-06-04T10:57:17;4.50;;;1.83;;
52102;SDS011;38101;53.126;6.878;2023-06-04T10:59:55;4.30;;;1.98;;
52102;SDS011;38101;53.126;6.878;2023-06-04T11:02:22;3.75;;;2.05;;
52102;SDS011;38101;53.126;6.878;2023-06-04T11:04:58;2.85;;;1.67;;
52102;SDS011;38101;53.126;6.878;2023-06-04T11:07:40;3.80;;;1.90;;
52102;SDS011;38101;53.126;6.878;2023-06-04T11:10:09;3.90;;;2.10;;
52102;SDS011;38101;53.126;6.878;2023-06-04T11:12:46;3.20;;;1.98;;
52102;SDS011;38101;53.126;6.878;2023-06-04T11:15:15;6.10;;;2.17;;
52102;SDS011;38101;53.126;6.878;2023-06-04T11:17:54;3.38;;;2.00;;
52102;SDS011;38101;53.126;6.878;2023-06-04T11:20:23;2.50;;;1.70;;
52102;SDS011;38101;53.126;6.878;2023-06-04T11:22:52;2.70;;;1.90;;
52102;SDS011;38101;53.126;6.878;2023-06-04T11:25:23;4.55;;;2.40;;
52102;SDS011;38101;53.126;6.878;2023-06-04T11:27:51;5.53;;;2.50;;
52102;SDS011;38101;53.126;6.878;2023-06-04T11:30:17;5.72;;;2.10;;
52102;SDS011;38101;53.126;6.878;2023-06-04T11:32:43;4.47;;;2.13;;
52102;SDS011;38101;53.126;6.878;2023-06-04T11:35:09;6.00;;;2.35;;
52102;SDS011;38101;53.126;6.878;2023-06-04T11:37:38;3.35;;;2.08;;
52102;SDS011;38101;53.126;6.878;2023-06-04T11:40:25;4.72;;;2.08;;
52102;SDS011;38101;53.126;6.878;2023-06-04T11:42:52;3.80;;;1.88;;
52102;SDS011;38101;53.126;6.878;2023-06-04T11:45:18;3.45;;;2.05;;
52102;SDS011;38101;53.126;6.878;2023-06-04T11:47:47;4.00;;;1.80;;
52102;SDS011;38101;53.126;6.878;2023-06-04T11:50:14;3.92;;;2.08;;
52102;SDS011;38101;53.126;6.878;2023-06-04T11:52:40;4.80;;;2.53;;
52102;SDS011;38101;53.126;6.878;2023-06-04T11:55:15;4.38;;;2.35;;
52102;SDS011;38101;53.126;6.878;2023-06-04T11:57:48;3.72;;;1.85;;
52102;SDS011;38101;53.126;6.878;2023-06-04T12:00:15;4.65;;;2.35;;
52102;SDS011;38101;53.126;6.878;2023-06-04T12:02:52;3.25;;;2.17;;
52102;SDS011;38101;53.126;6.878;2023-06-04T12:05:19;3.00;;;2.03;;
52102;SDS011;38101;53.126;6.878;2023-06-04T12:07:47;4.68;;;2.30;;
52102;SDS011;38101;53.126;6.878;2023-06-04T12:10:16;4.03;;;2.10;;
52102;SDS011;38101;53.126;6.878;2023-06-04T12:12:42;3.25;;;1.70;;
52102;SDS011;38101;53.126;6.878;2023-06-04T12:15:08;3.08;;;1.80;;
52102;SDS011;38101;53.126;6.878;2023-06-04T12:17:35;3.72;;;2.22;;
52102;SDS011;38101;53.126;6.878;2023-06-04T12:20:02;3.88;;;1.90;;
52102;SDS011;38101;53.126;6.878;2023-06-04T12:22:30;3.50;;;2.00;;
52102;SDS011;38101;53.126;6.878;2023-06-04T12:24:56;4.20;;;2.10;;
52102;SDS011;38101;53.126;6.878;2023-06-04T12:27:23;3.95;;;2.17;;
52102;SDS011;38101;53.126;6.878;2023-06-04T12:30:03;3.85;;;2.08;;
52102;SDS011;38101;53.126;6.878;2023-06-04T12:32:30;3.58;;;2.00;;
52102;SDS011;38101;53.126;6.878;2023-06-04T12:34:59;5.78;;;2.20;;
52102;SDS011;38101;53.126;6.878;2023-06-04T12:37:25;4.18;;;2.00;;
52102;SDS011;38101;53.126;6.878;2023-06-04T12:39:51;3.42;;;1.73;;
52102;SDS011;38101;53.126;6.878;2023-06-04T12:42:16;4.07;;;2.20;;
52102;SDS011;38101;53.126;6.878;2023-06-04T12:44:44;4.07;;;2.20;;
52102;SDS011;38101;53.126;6.878;2023-06-04T12:47:10;4.47;;;2.13;;
52102;SDS011;38101;53.126;6.878;2023-06-04T12:49:36;4.03;;;2.00;;
52102;SDS011;38101;53.126;6.878;2023-06-04T12:52:02;3.75;;;1.88;;
52102;SDS011;38101;53.126;6.878;2023-06-04T12:54:29;4.55;;;2.08;;
52102;SDS011;38101;53.126;6.878;2023-06-04T12:56:55;4.45;;;2.30;;
52102;SDS011;38101;53.126;6.878;2023-06-04T12:59:28;3.17;;;2.00;;
52102;SDS011;38101;53.126;6.878;2023-06-04T13:01:54;3.00;;;1.80;;
52102;SDS011;38101;53.126;6.878;2023-06-04T13:04:20;4.47;;;2.10;;
52102;SDS011;38101;53.126;6.878;2023-06-04T13:06:48;3.95;;;2.00;;
52102;SDS011;38101;53.126;6.878;2023-06-04T13:09:14;3.17;;;1.90;;
52102;SDS011;38101;53.126;6.878;2023-06-04T13:11:41;4.55;;;1.88;;
52102;SDS011;38101;53.126;6.878;2023-06-04T13:14:08;4.43;;;2.05;;
52102;SDS011;38101;53.126;6.878;2023-06-04T13:16:35;5.80;;;2.13;;
52102;SDS011;38101;53.126;6.878;2023-06-04T13:19:01;3.45;;;2.00;;
52102;SDS011;38101;53.126;6.878;2023-06-04T13:21:27;5.18;;;2.03;;
52102;SDS011;38101;53.126;6.878;2023-06-04T13:23:53;5.22;;;2.28;;
52102;SDS011;38101;53.126;6.878;2023-06-04T13:26:19;10.38;;;2.75;;
52102;SDS011;38101;53.126;6.878;2023-06-04T13:28:46;3.83;;;2.10;;
52102;SDS011;38101;53.126;6.878;2023-06-04T13:31:12;3.45;;;2.03;;
52102;SDS011;38101;53.126;6.878;2023-06-04T13:33:37;3.67;;;1.98;;
52102;SDS011;38101;53.126;6.878;2023-06-04T13:36:03;3.50;;;2.17;;
52102;SDS011;38101;53.126;6.878;2023-06-04T13:38:30;2.67;;;1.83;;
52102;SDS011;38101;53.126;6.878;2023-06-04T13:40:56;3.38;;;1.90;;
52102;SDS011;38101;53.126;6.878;2023-06-04T13:43:21;3.72;;;1.92;;
52102;SDS011;38101;53.126;6.878;2023-06-04T13:45:47;2.90;;;1.90;;
52102;SDS011;38101;53.126;6.878;2023-06-04T13:48:13;4.38;;;1.98;;
52102;SDS011;38101;53.126;6.878;2023-06-04T13:50:39;3.80;;;1.88;;
52102;SDS011;38101;53.126;6.878;2023-06-04T13:53:07;2.50;;;1.45;;
52102;SDS011;38101;53.126;6.878;2023-06-04T13:55:33;4.40;;;2.13;;
52102;SDS011;38101;53.126;6.878;2023-06-04T13:57:59;4.65;;;2.00;;
52102;SDS011;38101;53.126;6.878;2023-06-04T14:00:24;4.75;;;1.98;;
52102;SDS011;38101;53.126;6.878;2023-06-04T14:02:51;4.15;;;1.88;;
52102;SDS011;38101;53.126;6.878;2023-06-04T14:05:17;4.38;;;2.05;;
52102;SDS011;38101;53.126;6.878;2023-06-04T14:07:43;3.40;;;1.73;;
52102;SDS011;38101;53.126;6.878;2023-06-04T14:10:09;3.30;;;1.80;;
52102;SDS011;38101;53.126;6.878;2023-06-04T14:12:39;2.88;;;1.73;;
52102;SDS011;38101;53.126;6.878;2023-06-04T14:15:09;4.20;;;1.90;;
52102;SDS011;38101;53.126;6.878;2023-06-04T14:17:37;4.63;;;2.00;;
52102;SDS011;38101;53.126;6.878;2023-06-04T14:20:05;5.53;;;1.95;;
52102;SDS011;38101;53.126;6.878;2023-06-04T14:22:38;1.95;;;1.52;;
52102;SDS011;38101;53.126;6.878;2023-06-04T14:25:05;2.50;;;1.67;;
52102;SDS011;38101;53.126;6.878;2023-06-04T14:27:31;2.78;;;1.73;;
52102;SDS011;38101;53.126;6.878;2023-06-04T14:29:58;2.45;;;1.70;;
52102;SDS011;38101;53.126;6.878;2023-06-04T14:32:23;3.95;;;1.52;;
52102;SDS011;38101;53.126;6.878;2023-06-04T14:34:49;3.72;;;1.80;;
52102;SDS011;38101;53.126;6.878;2023-06-04T14:37:15;3.25;;;1.90;;
52102;SDS011;38101;53.126;6.878;2023-06-04T14:39:41;2.30;;;1.58;;
52102;SDS011;38101;53.126;6.878;2023-06-04T14:42:06;6.05;;;1.73;;
52102;SDS011;38101;53.126;6.878;2023-06-04T14:44:32;4.50;;;1.92;;
52102;SDS011;38101;53.126;6.878;2023-06-04T14:46:58;3.00;;;1.63;;
52102;SDS011;38101;53.126;6.878;2023-06-04T14:49:24;4.10;;;1.80;;
52102;SDS011;38101;53.126;6.878;2023-06-04T14:51:50;2.38;;;1.52;;
52102;SDS011;38101;53.126;6.878;2023-06-04T14:54:15;3.58;;;1.75;;
52102;SDS011;38101;53.126;6.878;2023-06-04T14:56:41;2.63;;;1.60;;
52102;SDS011;38101;53.126;6.878;2023-06-04T14:59:07;3.83;;;2.08;;
52102;SDS011;38101;53.126;6.878;2023-06-04T15:01:36;3.72;;;1.63;;